Time;durP1;ratioP1;P1;durP2;ratioP2;P2;SDS_P1;SDS_P2;PMS_P1;PMS_P2;Temp;Humidity;BMP_temperature;BMP_pressure;BME280_temperature;BME280_humidity;BME280_pressure;Samples;Min_cycle;Max_cycle;Signal;HPM_P1;HPM_P2
2024/02/11 00:00:10;;;;;;;2.17;0.77;;;;;;;5.44;100.00;93277.25;1035606;28;20022;-64
2024/02/11 00:00:41;;;;;;;1.20;0.82;;;;;;;5.33;100.00;93278.50;1040450;28;20028;-65
2024/02/11 00:01:14;;;;;;;1.60;1.50;;;;;;;5.32;100.00;93282.91;1039006;28;20028;-66
2024/02/11 00:01:45;;;;;;;1.67;0.65;;;;;;;5.28;100.00;93279.38;1036457;28;20022;-66
2024/02/11 00:02:16;;;;;;;0.30;0.30;;;;;;;5.28;100.00;93281.97;1038835;28;20025;-65
2024/02/11 00:02:47;;;;;;;2.30;1.13;;;;;;;5.28;100.00;93279.38;1035383;28;20613;-65
2024/02/11 00:03:25;;;;;;;1.27;1.27;;;;;;;5.27;100.00;93279.66;1038977;28;20060;-65
2024/02/11 00:03:56;;;;;;;0.98;0.98;;;;;;;5.27;100.00;93285.63;1039110;28;20030;-65
2024/02/11 00:04:26;;;;;;;0.95;0.90;;;;;;;5.26;100.00;93280.72;1042287;28;20029;-64
2024/02/11 00:04:57;;;;;;;1.17;0.88;;;;;;;5.25;100.00;93282.53;1043044;28;20025;-65
2024/02/11 00:05:28;;;;;;;3.30;0.93;;;;;;;5.26;100.00;93278.88;1038969;28;20382;-66
2024/02/11 00:05:58;;;;;;;0.98;0.95;;;;;;;5.27;100.00;93283.03;1038844;28;20021;-65
2024/02/11 00:06:29;;;;;;;1.45;1.35;;;;;;;5.12;100.00;93268.47;1039174;28;20022;-64
2024/02/11 00:06:59;;;;;;;1.58;1.48;;;;;;;5.22;100.00;93274.56;1042971;28;20044;-64
2024/02/11 00:07:30;;;;;;;0.63;0.63;;;;;;;5.24;100.00;93283.63;1042969;28;20032;-64
2024/02/11 00:08:00;;;;;;;2.20;1.33;;;;;;;5.22;100.00;93288.31;1042979;28;20029;-65
2024/02/11 00:08:31;;;;;;;0.55;0.55;;;;;;;5.21;100.00;93281.59;1038721;28;20092;-64
2024/02/11 00:09:04;;;;;;;0.40;0.38;;;;;;;5.18;100.00;93277.72;1039068;28;20576;-66
2024/02/11 00:09:35;;;;;;;0.47;0.47;;;;;;;5.20;100.00;93287.84;1038363;28;20025;-65
2024/02/11 00:10:08;;;;;;;0.65;0.65;;;;;;;5.20;100.00;93285.25;1029672;28;20030;-66
2024/02/11 00:10:39;;;;;;;1.27;1.17;;;;;;;5.21;100.00;93289.38;1030966;28;20433;-66
2024/02/11 00:11:12;;;;;;;0.55;0.55;;;;;;;5.19;100.00;93281.09;1030745;28;20031;-64
2024/02/11 00:11:43;;;;;;;9.07;2.40;;;;;;;5.19;100.00;93278.50;1035423;28;20029;-64
2024/02/11 00:12:13;;;;;;;0.93;0.90;;;;;;;5.21;100.00;93281.59;1038297;28;20052;-65
2024/02/11 00:12:43;;;;;;;1.85;1.75;;;;;;;5.24;100.00;93285.44;1038946;28;20041;-68
2024/02/11 00:13:14;;;;;;;3.70;1.95;;;;;;;5.24;100.00;93280.25;1041573;28;20029;-64
2024/02/11 00:13:45;;;;;;;0.38;0.38;;;;;;;5.28;100.00;93286.41;1038796;28;20564;-62
2024/02/11 00:14:16;;;;;;;0.93;0.85;;;;;;;5.30;100.00;93285.06;1040122;28;20037;-65
2024/02/11 00:14:46;;;;;;;0.70;0.70;;;;;;;5.34;100.00;93280.81;1039000;28;20041;-65
2024/02/11 00:15:17;;;;;;;0.70;0.70;;;;;;;5.33;100.00;93284.47;1038854;28;20036;-65
2024/02/11 00:15:47;;;;;;;0.32;0.32;;;;;;;5.35;100.00;93281.59;1043145;28;20047;-65
2024/02/11 00:16:18;;;;;;;0.17;0.17;;;;;;;5.35;100.00;93287.53;1043014;28;20436;-65
2024/02/11 00:16:48;;;;;;;0.73;0.73;;;;;;;5.35;100.00;93287.53;1042921;28;20492;-65
2024/02/11 00:17:19;;;;;;;1.35;0.90;;;;;;;5.35;100.00;93287.53;1043071;28;20021;-65
2024/02/11 00:17:50;;;;;;;5.15;0.93;;;;;;;5.39;100.00;93291.09;1043341;28;20021;-67
2024/02/11 00:18:23;;;;;;;2.28;0.30;;;;;;;5.38;100.00;93294.78;1042629;28;20140;-65
2024/02/11 00:18:54;;;;;;;4.95;1.42;;;;;;;5.39;100.00;93290.34;1039043;28;20035;-66
2024/02/11 00:19:24;;;;;;;0.50;0.50;;;;;;;5.39;100.00;93296.31;1029967;28;20521;-63
2024/02/11 00:19:55;;;;;;;0.65;0.65;;;;;;;5.40;100.00;93300.47;1031282;28;20026;-64
2024/02/11 00:20:27;;;;;;;1.40;1.30;;;;;;;5.42;100.00;93293.13;1035287;28;20041;-65
2024/02/11 00:20:57;;;;;;;0.40;0.40;;;;;;;5.47;100.00;93296.72;1035432;28;20022;-64
2024/02/11 00:21:28;;;;;;;1.45;1.35;;;;;;;5.44;100.00;93301.41;1039096;28;20056;-66
2024/02/11 00:22:01;;;;;;;0.43;0.43;;;;;;;5.43;100.00;93296.50;1034778;28;20068;-65
2024/02/11 00:22:33;;;;;;;1.35;1.23;;;;;;;5.46;100.00;93298.50;1035368;28;20065;-65
2024/02/11 00:23:04;;;;;;;0.50;0.47;;;;;;;5.49;100.00;93299.78;1035607;28;20057;-66
2024/02/11 00:23:36;;;;;;;0.32;0.32;;;;;;;5.49;100.00;93297.16;1035495;28;20143;-65
2024/02/11 00:24:06;;;;;;;0.75;0.75;;;;;;;5.49;100.00;93299.78;1034861;28;20588;-66
2024/02/11 00:24:36;;;;;;;0.85;0.85;;;;;;;5.47;100.00;93296.72;1035127;28;20040;-64
2024/02/11 00:25:09;;;;;;;0.93;0.93;;;;;;;5.47;100.00;93301.91;1038943;28;20036;-65
2024/02/11 00:25:40;;;;;;;1.48;1.02;;;;;;;5.44;100.00;93300.66;1043155;28;20806;-66
2024/02/11 00:26:10;;;;;;;2.33;0.93;;;;;;;5.41;100.00;93296.78;1043267;28;20049;-64
2024/02/11 00:26:41;;;;;;;0.55;0.55;;;;;;;5.46;100.00;93297.75;1038662;28;20033;-65
2024/02/11 00:27:12;;;;;;;0.32;0.32;;;;;;;5.43;100.00;93293.88;1034786;28;20600;-65
2024/02/11 00:27:48;;;;;;;0.80;0.80;;;;;;;5.47;100.00;93300.06;1034721;28;20032;-64
2024/02/11 00:28:23;;;;;;;3.03;1.27;;;;;;;5.46;100.00;93308.91;1032695;28;20157;-65
2024/02/11 00:28:53;;;;;;;1.05;0.95;;;;;;;5.49;100.00;93300.53;1036185;28;20049;-65
2024/02/11 00:29:24;;;;;;;0.40;0.40;;;;;;;5.53;100.00;93308.53;1038276;28;20472;-64
2024/02/11 00:29:54;;;;;;;0.82;0.82;;;;;;;5.56;100.00;93307.94;1039877;28;20025;-64
2024/02/11 00:30:25;;;;;;;0.70;0.70;;;;;;;5.58;100.00;93306.59;1042831;28;20079;-65
2024/02/11 00:30:55;;;;;;;1.80;1.70;;;;;;;5.60;100.00;93303.69;1038910;28;20052;-65
2024/02/11 00:31:26;;;;;;;0.17;0.10;;;;;;;5.59;100.00;93296.97;1036823;28;20425;-65
2024/02/11 00:31:57;;;;;;;0.90;0.88;;;;;;;5.65;100.00;93301.00;1036463;28;20026;-63
2024/02/11 00:32:27;;;;;;;0.80;0.80;;;;;;;5.65;100.00;93306.22;1042614;28;20028;-65
2024/02/11 00:32:57;;;;;;;0.40;0.40;;;;;;;5.62;100.00;93302.34;1038945;28;20024;-64
2024/02/11 00:33:28;;;;;;;1.50;0.82;;;;;;;5.64;100.00;93304.69;1039078;28;20033;-65
2024/02/11 00:34:04;;;;;;;1.15;1.02;;;;;;;5.65;100.00;93303.59;1039733;28;20033;-64
2024/02/11 00:34:34;;;;;;;0.55;0.55;;;;;;;5.66;100.00;93302.53;1041046;28;20786;-64
2024/02/11 00:35:05;;;;;;;7.97;0.70;;;;;;;5.64;100.00;93302.84;1043397;28;20032;-64
2024/02/11 00:35:36;;;;;;;2.03;1.35;;;;;;;5.63;100.00;93308.31;1042965;28;20013;-65
2024/02/11 00:36:07;;;;;;;0.45;0.45;;;;;;;5.60;100.00;93314.09;1038764;28;20025;-65
2024/02/11 00:36:40;;;;;;;3.55;2.10;;;;;;;5.59;100.00;93302.16;1038995;28;20029;-66
2024/02/11 00:37:11;;;;;;;1.25;0.90;;;;;;;5.59;100.00;93307.38;1039263;28;20044;-65
2024/02/11 00:37:42;;;;;;;1.50;1.40;;;;;;;5.61;100.00;93313.06;1041690;28;20021;-66
2024/02/11 00:38:14;;;;;;;1.67;1.58;;;;;;;5.57;100.00;93307.66;1040759;28;20411;-65
2024/02/11 00:38:44;;;;;;;2.90;1.60;;;;;;;5.59;100.00;93315.16;1038896;28;20029;-64
2024/02/11 00:39:15;;;;;;;1.30;1.20;;;;;;;5.57;100.00;93315.47;1038102;28;20033;-65
2024/02/11 00:39:45;;;;;;;0.90;0.70;;;;;;;5.59;100.00;93318.53;1030185;28;20379;-64
2024/02/11 00:40:16;;;;;;;0.57;0.57;;;;;;;5.58;100.00;93317.00;1032790;28;20030;-66
2024/02/11 00:40:47;;;;;;;1.90;1.75;;;;;;;5.59;100.00;93317.78;1038857;28;20025;-65
2024/02/11 00:41:17;;;;;;;1.58;0.90;;;;;;;5.58;100.00;93326.66;1038669;28;20032;-65
2024/02/11 00:41:48;;;;;;;0.32;0.32;;;;;;;5.58;100.00;93317.00;1038929;28;20389;-65
2024/02/11 00:42:19;;;;;;;1.05;0.82;;;;;;;5.56;100.00;93323.56;1041126;28;20017;-66
2024/02/11 00:42:51;;;;;;;2.38;1.13;;;;;;;5.55;100.00;93317.59;1042082;28;20029;-65
2024/02/11 00:43:21;;;;;;;2.08;1.35;;;;;;;5.53;100.00;93322.28;1042903;28;20032;-68
2024/02/11 00:43:52;;;;;;;0.90;0.85;;;;;;;5.51;100.00;93316.63;1034798;28;20045;-65
2024/02/11 00:44:22;;;;;;;0.63;0.43;;;;;;;5.55;100.00;93316.81;1034616;28;20382;-65
2024/02/11 00:44:56;;;;;;;2.08;1.00;;;;;;;5.56;100.00;93326.16;1037483;28;20034;-65
2024/02/11 00:45:29;;;;;;;0.35;0.35;;;;;;;5.59;100.00;93328.19;1035386;28;20092;-66
2024/02/11 00:45:59;;;;;;;0.38;0.38;;;;;;;5.60;100.00;93327.91;1036493;28;20599;-65
2024/02/11 00:46:29;;;;;;;2.45;1.73;;;;;;;5.62;100.00;93323.16;1038579;28;20056;-65
2024/02/11 00:47:01;;;;;;;2.03;1.70;;;;;;;5.61;100.00;93326.06;1039265;28;20477;-66
2024/02/11 00:47:31;;;;;;;1.27;1.17;;;;;;;5.60;100.00;93321.91;1042966;28;20781;-65
2024/02/11 00:48:03;;;;;;;0.82;0.80;;;;;;;5.59;100.00;93323.75;1041958;28;20048;-67
2024/02/11 00:48:34;;;;;;;0.82;0.70;;;;;;;5.61;100.00;93333.88;1038753;28;20022;-65
2024/02/11 00:49:04;;;;;;;0.82;0.82;;;;;;;5.63;100.00;93334.34;1038937;28;20030;-65
2024/02/11 00:49:35;;;;;;;3.30;0.57;;;;;;;5.61;100.00;93326.84;1034046;28;20022;-65
2024/02/11 00:50:06;;;;;;;1.63;0.80;;;;;;;5.59;100.00;93322.97;1034875;28;20686;-65
2024/02/11 00:50:37;;;;;;;2.10;0.90;;;;;;;5.61;100.00;93331.28;1034686;28;20026;-64
2024/02/11 00:51:10;;;;;;;1.40;1.30;;;;;;;5.58;100.00;93332.63;1031864;28;20053;-65
2024/02/11 00:51:41;;;;;;;0.63;0.63;;;;;;;5.56;100.00;93333.97;1041068;28;20993;-65
2024/02/11 00:52:11;;;;;;;2.30;1.30;;;;;;;5.57;100.00;93330.31;1034472;28;20116;-65
2024/02/11 00:52:42;;;;;;;0.85;0.85;;;;;;;5.60;100.00;93324.50;1035222;28;20018;-66
2024/02/11 00:53:12;;;;;;;1.98;1.35;;;;;;;5.60;100.00;93327.91;1038821;28;20101;-66
2024/02/11 00:53:43;;;;;;;1.80;1.02;;;;;;;5.58;100.00;93324.03;1034717;28;20033;-64
2024/02/11 00:54:13;;;;;;;2.50;2.30;;;;;;;5.58;100.00;93329.25;1036496;28;20033;-65
2024/02/11 00:54:43;;;;;;;0.35;0.35;;;;;;;5.56;100.00;93321.72;1029723;28;20565;-66
2024/02/11 00:55:14;;;;;;;1.20;1.10;;;;;;;5.47;100.00;93304.50;1029787;28;20038;-65
2024/02/11 00:55:44;;;;;;;1.25;1.15;;;;;;;5.56;100.00;93316.53;1030799;28;20140;-64
2024/02/11 00:56:15;;;;;;;0.88;0.80;;;;;;;5.55;100.00;93319.41;1034590;28;20100;-64
2024/02/11 00:56:46;;;;;;;0.40;0.40;;;;;;;5.59;100.00;93328.19;1034724;28;20038;-65
2024/02/11 00:57:19;;;;;;;0.80;0.77;;;;;;;5.58;100.00;93326.66;1039100;28;20056;-65
2024/02/11 00:57:49;;;;;;;1.10;0.75;;;;;;;5.60;100.00;93316.69;1036153;28;20037;-64
2024/02/11 00:58:20;;;;;;;0.65;0.65;;;;;;;5.63;100.00;93324.72;1037687;28;20032;-64
2024/02/11 00:58:50;;;;;;;0.47;0.47;;;;;;;5.63;100.00;93318.72;1042950;28;20029;-65
2024/02/11 00:59:21;;;;;;;1.95;1.02;;;;;;;5.62;100.00;93325.00;1038673;28;20026;-64
2024/02/11 00:59:51;;;;;;;0.30;0.30;;;;;;;5.64;100.00;93320.28;1042448;28;20064;-65
2024/02/11 01:00:23;;;;;;;1.48;1.38;;;;;;;5.61;100.00;93316.44;1043301;28;20428;-65
2024/02/11 01:00:53;;;;;;;1.48;1.05;;;;;;;5.60;100.00;93319.31;1042375;28;20028;-65
2024/02/11 01:01:24;;;;;;;0.47;0.35;;;;;;;5.61;100.00;93328.66;1042384;28;20693;-66
2024/02/11 01:01:54;;;;;;;1.48;0.82;;;;;;;5.60;100.00;93324.50;1043937;28;20029;-65
2024/02/11 01:02:24;;;;;;;0.52;0.52;;;;;;;5.61;100.00;93326.84;1043775;28;20032;-66
2024/02/11 01:02:55;;;;;;;0.47;0.47;;;;;;;5.61;100.00;93326.06;1043618;28;20542;-65
2024/02/11 01:03:25;;;;;;;0.40;0.40;;;;;;;5.59;100.00;93333.38;1035204;28;20501;-65
2024/02/11 01:03:56;;;;;;;3.65;1.17;;;;;;;5.60;100.00;93324.50;1035722;28;20487;-65
2024/02/11 01:04:28;;;;;;;1.15;0.98;;;;;;;5.59;100.00;93326.34;1031263;28;20053;-67
2024/02/11 01:04:58;;;;;;;0.32;0.32;;;;;;;5.60;100.00;93329.72;1031852;28;20030;-65
2024/02/11 01:05:29;;;;;;;0.63;0.63;;;;;;;5.64;100.00;93335.91;1039565;28;20025;-65
2024/02/11 01:06:00;;;;;;;1.30;1.08;;;;;;;5.59;100.00;93333.38;1039800;28;20535;-65
2024/02/11 01:06:30;;;;;;;1.23;1.17;;;;;;;5.60;100.00;93340.13;1043767;28;20048;-66
2024/02/11 01:07:01;;;;;;;0.75;0.73;;;;;;;5.61;100.00;93337.25;1043690;28;20028;-65
2024/02/11 01:07:32;;;;;;;0.90;0.90;;;;;;;5.62;100.00;93338.78;1039438;28;20500;-64
2024/02/11 01:08:02;;;;;;;0.82;0.77;;;;;;;5.64;100.00;93335.91;1031705;28;20418;-64
2024/02/11 01:08:33;;;;;;;1.10;1.05;;;;;;;5.65;100.00;93329.63;1035346;28;20030;-65
2024/02/11 01:09:03;;;;;;;3.33;1.95;;;;;;;5.65;100.00;93338.19;1035527;28;20575;-65
2024/02/11 01:09:34;;;;;;;0.32;0.32;;;;;;;5.66;100.00;93338.97;1039052;28;20037;-64
2024/02/11 01:10:11;;;;;;;0.22;0.22;;;;;;;5.66;100.00;93337.13;1039431;28;20124;-68
2024/02/11 01:10:42;;;;;;;3.05;1.98;;;;;;;5.69;100.00;93338.38;1031544;28;20026;-64
2024/02/11 01:11:12;;;;;;;1.52;1.35;;;;;;;5.70;100.00;93341.75;1029444;28;20482;-65
2024/02/11 01:11:43;;;;;;;0.65;0.65;;;;;;;5.69;100.00;93338.38;1031773;28;20084;-66
2024/02/11 01:12:14;;;;;;;1.10;1.00;;;;;;;5.71;100.00;93336.28;1035568;28;20040;-65
2024/02/11 01:12:44;;;;;;;3.08;2.10;;;;;;;5.71;100.00;93338.09;1035307;28;20048;-66
2024/02/11 01:13:15;;;;;;;2.65;1.55;;;;;;;5.75;100.00;93346.88;1025344;28;20038;-65
2024/02/11 01:13:46;;;;;;;0.65;0.65;;;;;;;5.77;100.00;93350.72;1027582;28;20023;-64
2024/02/11 01:14:18;;;;;;;0.80;0.80;;;;;;;5.75;100.00;93339.81;1031544;28;20055;-65
2024/02/11 01:14:50;;;;;;;1.48;1.33;;;;;;;5.79;100.00;93348.59;1032499;28;20045;-65
2024/02/11 01:15:26;;;;;;;1.95;0.95;;;;;;;5.83;100.00;93349.53;1038948;28;20037;-65
2024/02/11 01:15:56;;;;;;;0.73;0.65;;;;;;;5.85;100.00;93363.03;1035599;28;20025;-65
2024/02/11 01:16:28;;;;;;;0.80;0.80;;;;;;;5.89;100.00;93361.38;1032354;28;20482;-66
2024/02/11 01:16:58;;;;;;;3.03;1.63;;;;;;;5.90;100.00;93359.56;1036367;28;20037;-65
2024/02/11 01:17:29;;;;;;;1.48;1.38;;;;;;;5.93;100.00;93364.22;1035645;28;20030;-65
2024/02/11 01:18:00;;;;;;;1.83;1.73;;;;;;;5.95;100.00;93366.53;1037854;28;20069;-63
2024/02/11 01:18:30;;;;;;;0.82;0.80;;;;;;;5.98;100.00;93368.56;1043356;28;20045;-66
2024/02/11 01:19:02;;;;;;;1.38;1.08;;;;;;;5.99;100.00;93372.69;1039709;28;20038;-65
2024/02/11 01:19:33;;;;;;;1.92;1.17;;;;;;;6.01;100.00;93375.78;1039911;28;20072;-65
2024/02/11 01:20:05;;;;;;;2.17;1.98;;;;;;;6.06;100.00;93378.28;1039703;28;20030;-65
2024/02/11 01:20:35;;;;;;;1.10;0.82;;;;;;;6.05;100.00;93380.09;1039784;28;20026;-64
2024/02/11 01:21:07;;;;;;;1.10;1.05;;;;;;;6.05;100.00;93382.72;1043594;28;20024;-65
2024/02/11 01:21:37;;;;;;;0.55;0.55;;;;;;;6.06;100.00;93376.44;1040128;28;20362;-65
2024/02/11 01:22:08;;;;;;;0.82;0.60;;;;;;;6.07;100.00;93375.38;1039355;28;20021;-65
2024/02/11 01:22:41;;;;;;;0.30;0.30;;;;;;;6.11;100.00;93375.56;1039386;28;20017;-64
2024/02/11 01:23:11;;;;;;;0.95;0.80;;;;;;;6.13;100.00;93378.63;1035943;28;20054;-64
2024/02/11 01:23:42;;;;;;;0.88;0.47;;;;;;;6.15;100.00;93373.91;1032205;28;20037;-64
2024/02/11 01:24:16;;;;;;;1.45;1.35;;;;;;;6.16;100.00;93380.66;1031761;28;20030;-65
2024/02/11 01:24:46;;;;;;;0.60;0.43;;;;;;;6.14;100.00;93382.81;1035790;28;20033;-64
2024/02/11 01:25:20;;;;;;;0.80;0.50;;;;;;;6.13;100.00;93382.00;1035400;28;20026;-65
2024/02/11 01:25:51;;;;;;;0.45;0.45;;;;;;;6.14;100.00;93380.19;1038816;28;20100;-64
2024/02/11 01:26:22;;;;;;;0.77;0.73;;;;;;;6.14;100.00;93380.19;1039320;28;20037;-65
2024/02/11 01:26:53;;;;;;;1.23;1.08;;;;;;;6.15;100.00;93379.13;1036009;28;20053;-64
2024/02/11 01:27:23;;;;;;;1.13;1.00;;;;;;;6.16;100.00;93377.28;1042401;28;20028;-64
2024/02/11 01:27:54;;;;;;;1.33;1.25;;;;;;;6.16;100.00;93375.44;1043618;28;20036;-65
2024/02/11 01:28:24;;;;;;;5.25;2.33;;;;;;;6.16;100.00;93377.28;1039760;28;20068;-65
2024/02/11 01:28:55;;;;;;;1.33;1.23;;;;;;;6.11;100.00;93386.00;1043470;28;20385;-65
2024/02/11 01:29:25;;;;;;;0.95;0.80;;;;;;;6.12;100.00;93379.72;1042964;28;20163;-65
2024/02/11 01:29:56;;;;;;;1.83;1.58;;;;;;;6.09;100.00;93385.50;1043694;28;20021;-63
2024/02/11 01:30:27;;;;;;;2.83;0.65;;;;;;;6.09;100.00;93380.28;1043434;28;20021;-66
2024/02/11 01:30:57;;;;;;;1.38;1.27;;;;;;;6.09;100.00;93383.66;1043719;28;20036;-66
2024/02/11 01:31:28;;;;;;;0.50;0.50;;;;;;;6.12;100.00;93384.91;1043492;28;20029;-64
2024/02/11 01:31:59;;;;;;;1.50;0.80;;;;;;;6.11;100.00;93389.34;1043636;28;20025;-65
2024/02/11 01:32:29;;;;;;;1.85;1.75;;;;;;;6.12;100.00;93388.28;1043305;28;20412;-66
2024/02/11 01:33:00;;;;;;;0.75;0.75;;;;;;;6.11;100.00;93391.19;1038957;28;20021;-65
2024/02/11 01:33:30;;;;;;;1.08;0.98;;;;;;;6.07;100.00;93393.63;1039666;28;20037;-64
2024/02/11 01:34:00;;;;;;;1.55;1.35;;;;;;;6.08;100.00;93386.56;1043535;28;20029;-65
2024/02/11 01:34:31;;;;;;;0.52;0.52;;;;;;;6.07;100.00;93395.41;1043439;28;20029;-64
2024/02/11 01:35:02;;;;;;;1.45;1.35;;;;;;;6.07;100.00;93398.03;1039649;28;20022;-67
2024/02/11 01:35:32;;;;;;;1.85;1.13;;;;;;;6.05;100.00;93397.56;1035289;28;20037;-64
2024/02/11 01:36:03;;;;;;;0.75;0.43;;;;;;;6.05;100.00;93400.16;1039400;28;20627;-64
2024/02/11 01:36:34;;;;;;;1.00;0.52;;;;;;;6.05;100.00;93390.53;1035611;28;20445;-65
2024/02/11 01:37:04;;;;;;;0.85;0.85;;;;;;;6.06;100.00;93392.06;1027350;28;20062;-65
2024/02/11 01:37:40;;;;;;;4.25;1.77;;;;;;;6.09;100.00;93398.50;1027195;28;20093;-65
2024/02/11 01:38:10;;;;;;;2.05;1.60;;;;;;;6.07;100.00;93391.00;1026013;28;20043;-65
2024/02/11 01:38:41;;;;;;;1.65;1.20;;;;;;;6.07;100.00;93390.22;1031166;28;20092;-65
2024/02/11 01:39:11;;;;;;;0.75;0.75;;;;;;;6.09;100.00;93398.50;1024660;28;20027;-66
2024/02/11 01:39:42;;;;;;;1.25;1.20;;;;;;;6.09;100.00;93398.50;1022553;29;20074;-65
2024/02/11 01:40:15;;;;;;;2.05;1.25;;;;;;;6.09;100.00;93401.13;1023419;28;20399;-63
2024/02/11 01:40:46;;;;;;;1.55;1.13;;;;;;;6.09;100.00;93403.72;1024788;28;20047;-64
2024/02/11 01:41:16;;;;;;;1.55;0.82;;;;;;;6.09;100.00;93398.50;1035717;28;20080;-65
2024/02/11 01:41:47;;;;;;;2.53;1.83;;;;;;;6.10;100.00;93397.44;1031650;28;20120;-65
2024/02/11 01:42:17;;;;;;;2.17;0.38;;;;;;;6.11;100.00;93399.00;1035860;28;20417;-65
2024/02/11 01:42:47;;;;;;;1.58;0.80;;;;;;;6.09;100.00;93396.69;1039432;28;20127;-65
2024/02/11 01:43:18;;;;;;;4.22;1.30;;;;;;;6.12;100.00;93392.72;1039589;28;20056;-65
2024/02/11 01:43:48;;;;;;;8.25;1.75;;;;;;;6.09;100.00;93394.06;1043506;28;20025;-65
2024/02/11 01:44:19;;;;;;;1.88;1.35;;;;;;;6.09;100.00;93399.28;1039431;28;20603;-65
2024/02/11 01:44:49;;;;;;;1.15;1.05;;;;;;;6.11;100.00;93394.56;1029979;28;20030;-65
2024/02/11 01:45:20;;;;;;;0.60;0.60;;;;;;;6.11;100.00;93391.97;1026975;28;20074;-65
2024/02/11 01:45:50;;;;;;;0.60;0.60;;;;;;;6.08;100.00;93389.16;1023161;28;20035;-66
2024/02/11 01:46:21;;;;;;;1.88;1.42;;;;;;;6.10;100.00;93385.22;1023455;28;20019;-67
2024/02/11 01:46:51;;;;;;;0.82;0.77;;;;;;;6.13;100.00;93394.25;1027352;28;20035;-66
2024/02/11 01:47:21;;;;;;;1.63;1.20;;;;;;;6.13;100.00;93395.03;1035537;28;20939;-65
2024/02/11 01:47:53;;;;;;;3.08;0.47;;;;;;;6.07;100.00;93385.81;1039318;28;20056;-65
2024/02/11 01:48:23;;;;;;;0.63;0.63;;;;;;;6.13;100.00;93391.66;1043171;28;20025;-66
2024/02/11 01:48:55;;;;;;;1.13;1.13;;;;;;;6.12;100.00;93393.50;1035331;28;20026;-66
2024/02/11 01:49:25;;;;;;;0.88;0.88;;;;;;;6.12;100.00;93387.53;1034669;28;20030;-67
2024/02/11 01:49:56;;;;;;;1.30;0.70;;;;;;;6.12;100.00;93396.09;1033695;28;20437;-64
2024/02/11 01:50:31;;;;;;;1.58;1.38;;;;;;;6.12;100.00;93393.50;1035278;28;20025;-65
2024/02/11 01:51:02;;;;;;;0.43;0.43;;;;;;;6.13;100.00;93395.03;1039461;28;20034;-66
2024/02/11 01:51:33;;;;;;;4.13;1.35;;;;;;;6.13;100.00;93392.41;1032354;28;20480;-66
2024/02/11 01:52:06;;;;;;;0.98;0.60;;;;;;;6.07;100.00;93382.41;1035316;28;20050;-67
2024/02/11 01:52:37;;;;;;;3.92;0.73;;;;;;;6.09;100.00;93390.69;1035994;28;20041;-65
2024/02/11 01:53:07;;;;;;;0.75;0.75;;;;;;;6.11;100.00;93393.78;1038915;28;20033;-65
2024/02/11 01:53:39;;;;;;;5.43;3.13;;;;;;;6.07;100.00;93390.22;1035845;28;20454;-65
2024/02/11 01:54:11;;;;;;;5.57;2.20;;;;;;;6.08;100.00;93396.97;1036156;28;20041;-65
2024/02/11 01:54:41;;;;;;;0.60;0.60;;;;;;;6.09;100.00;93396.69;1031565;28;20010;-65
2024/02/11 01:55:17;;;;;;;1.27;1.20;;;;;;;6.11;100.00;93397.16;1027194;28;20582;-67
2024/02/11 01:55:47;;;;;;;0.82;0.82;;;;;;;6.11;100.00;93396.41;1028714;28;20537;-65
2024/02/11 01:56:20;;;;;;;1.15;0.45;;;;;;;6.12;100.00;93401.31;1024901;28;20035;-67
2024/02/11 01:56:50;;;;;;;0.70;0.70;;;;;;;6.13;100.00;93402.84;1031347;28;20490;-66
2024/02/11 01:57:21;;;;;;;1.13;0.77;;;;;;;6.14;100.00;93401.03;1027576;28;20043;-65
2024/02/11 01:57:52;;;;;;;0.60;0.60;;;;;;;6.16;100.00;93400.72;1032069;28;20030;-65
2024/02/11 01:58:22;;;;;;;11.45;3.33;;;;;;;6.16;100.00;93398.88;1039678;28;20455;-64
2024/02/11 01:58:53;;;;;;;1.33;1.23;;;;;;;6.12;100.00;93398.69;1033459;28;20030;-66
2024/02/11 01:59:23;;;;;;;1.00;1.00;;;;;;;6.18;100.00;93406.41;1030862;28;20035;-64
2024/02/11 01:59:54;;;;;;;1.25;0.95;;;;;;;6.17;100.00;93404.84;1027717;28;20483;-67
2024/02/11 02:00:24;;;;;;;1.13;1.13;;;;;;;6.16;100.00;93401.50;1019326;28;20035;-65
2024/02/11 02:00:55;;;;;;;1.27;1.17;;;;;;;6.18;100.00;93404.59;1023213;29;20030;-67
2024/02/11 02:01:27;;;;;;;0.50;0.50;;;;;;;6.16;100.00;93406.69;1026511;28;20037;-65
2024/02/11 02:01:58;;;;;;;1.10;1.05;;;;;;;6.17;100.00;93405.66;1026798;28;20058;-66
2024/02/11 02:02:29;;;;;;;13.52;2.30;;;;;;;6.13;100.00;93402.06;1035827;28;20080;-65
2024/02/11 02:03:00;;;;;;;1.48;0.77;;;;;;;6.17;100.00;93410.88;1032820;28;20104;-65
2024/02/11 02:03:30;;;;;;;1.33;1.15;;;;;;;6.19;100.00;93405.34;1035445;28;20641;-64
2024/02/11 02:04:01;;;;;;;2.20;0.85;;;;;;;6.18;100.00;93401.97;1035352;28;20025;-65
2024/02/11 02:04:32;;;;;;;1.30;1.17;;;;;;;6.19;100.00;93408.72;1027002;28;20043;-66
2024/02/11 02:05:02;;;;;;;1.73;1.52;;;;;;;6.20;100.00;93409.47;1030675;28;20030;-67
2024/02/11 02:05:33;;;;;;;2.05;1.85;;;;;;;6.17;100.00;93410.88;1027406;28;20078;-65
2024/02/11 02:06:03;;;;;;;1.15;1.05;;;;;;;6.19;100.00;93407.94;1035496;28;20465;-65
2024/02/11 02:06:34;;;;;;;1.45;1.17;;;;;;;6.13;100.00;93399.47;1039481;28;20025;-66
2024/02/11 02:07:04;;;;;;;1.13;0.88;;;;;;;6.19;100.00;93413.16;1035240;28;20076;-65
2024/02/11 02:07:35;;;;;;;1.50;0.85;;;;;;;6.19;100.00;93410.56;1035342;28;20034;-65
2024/02/11 02:08:08;;;;;;;0.40;0.40;;;;;;;6.22;100.00;93410.75;1035256;28;20041;-65
2024/02/11 02:08:39;;;;;;;6.03;1.77;;;;;;;6.24;100.00;93416.44;1035080;28;20033;-65
2024/02/11 02:09:11;;;;;;;1.85;0.95;;;;;;;6.25;100.00;93406.78;1035649;28;20615;-65
2024/02/11 02:09:41;;;;;;;1.10;1.00;;;;;;;6.28;100.00;93406.22;1031231;28;20033;-65
2024/02/11 02:10:12;;;;;;;4.20;0.60;;;;;;;6.30;100.00;93414.47;1031791;28;20413;-65
2024/02/11 02:10:45;;;;;;;1.38;1.27;;;;;;;6.25;100.00;93410.16;1031338;28;20307;-65
2024/02/11 02:11:16;;;;;;;2.20;1.27;;;;;;;6.27;100.00;93415.84;1027048;28;20019;-65
2024/02/11 02:11:46;;;;;;;1.27;1.23;;;;;;;6.26;100.00;93414.28;1027079;28;20399;-64
2024/02/11 02:12:17;;;;;;;0.45;0.40;;;;;;;6.28;100.00;93420.00;1023372;28;20734;-65
2024/02/11 02:12:47;;;;;;;0.40;0.38;;;;;;;6.29;100.00;93410.34;1031222;28;20042;-65
2024/02/11 02:13:18;;;;;;;2.15;1.27;;;;;;;6.28;100.00;93409.56;1034237;28;20021;-65
2024/02/11 02:13:48;;;;;;;1.45;0.98;;;;;;;6.29;100.00;93418.91;1031239;28;20022;-65
2024/02/11 02:14:19;;;;;;;1.17;1.17;;;;;;;6.30;100.00;93409.28;1029247;28;20462;-65
2024/02/11 02:14:49;;;;;;;1.38;1.27;;;;;;;6.29;100.00;93413.72;1027357;28;20077;-65
2024/02/11 02:15:20;;;;;;;2.33;1.95;;;;;;;6.30;100.00;93410.03;1023003;28;20018;-65
2024/02/11 02:15:50;;;;;;;0.52;0.52;;;;;;;6.32;100.00;93420.94;1027056;28;20030;-66
2024/02/11 02:16:22;;;;;;;2.40;0.52;;;;;;;6.34;100.00;93412.84;1027274;28;20201;-65
2024/02/11 02:16:52;;;;;;;0.95;0.93;;;;;;;6.32;100.00;93413.13;1031355;28;20472;-66
2024/02/11 02:17:23;;;;;;;0.60;0.50;;;;;;;6.32;100.00;93413.13;1031652;28;20062;-65
2024/02/11 02:17:54;;;;;;;8.27;1.25;;;;;;;6.34;100.00;93415.47;1031180;28;20475;-65
2024/02/11 02:18:26;;;;;;;0.65;0.65;;;;;;;6.33;100.00;93413.91;1034051;28;20050;-64
2024/02/11 02:18:56;;;;;;;1.52;1.45;;;;;;;6.33;100.00;93419.88;1035641;28;20017;-65
2024/02/11 02:19:27;;;;;;;0.30;0.25;;;;;;;6.31;100.00;93416.81;1039048;28;20099;-65
2024/02/11 02:19:58;;;;;;;0.25;0.25;;;;;;;6.34;100.00;93418.81;1043681;28;20432;-65
2024/02/11 02:20:28;;;;;;;0.45;0.45;;;;;;;6.35;100.00;93411.78;1039377;28;20040;-65
2024/02/11 02:20:59;;;;;;;0.32;0.32;;;;;;;6.34;100.00;93413.63;1039317;28;20203;-64
2024/02/11 02:21:30;;;;;;;6.43;1.10;;;;;;;6.33;100.00;93419.09;1035346;28;20026;-63
2024/02/11 02:22:00;;;;;;;0.38;0.38;;;;;;;6.36;100.00;93416.69;1034855;28;20026;-65
2024/02/11 02:22:31;;;;;;;3.58;0.98;;;;;;;6.37;100.00;93420.84;1035711;28;20030;-65
2024/02/11 02:23:01;;;;;;;0.43;0.43;;;;;;;6.35;100.00;93422.97;1025835;28;20019;-63
2024/02/11 02:23:32;;;;;;;1.83;1.25;;;;;;;6.35;100.00;93427.41;1027185;28;20034;-64
2024/02/11 02:24:03;;;;;;;0.88;0.88;;;;;;;6.35;100.00;93427.41;1037080;28;20459;-66
2024/02/11 02:24:33;;;;;;;1.60;1.02;;;;;;;6.36;100.00;93423.72;1035610;28;20030;-64
2024/02/11 02:25:04;;;;;;;2.72;1.00;;;;;;;6.35;100.00;93427.41;1040971;28;20026;-64
2024/02/11 02:25:35;;;;;;;1.65;1.45;;;;;;;6.35;100.00;93425.56;1039786;28;20029;-65
2024/02/11 02:26:08;;;;;;;2.05;1.85;;;;;;;6.34;100.00;93420.66;1043695;28;20462;-64